sensor_id;sensor_type;location;lat;lon;timestamp;pressure;altitude;pressure_sealevel;temperature;humidity
43814;BME280;29669;55.706;37.656;2022-12-29T00:01:07;99724.53;;;1.23;nan
43814;BME280;29669;55.706;37.656;2022-12-29T00:03:35;99732.84;;;1.27;nan
43814;BME280;29669;55.706;37.656;2022-12-29T00:06:04;99732.00;;;1.26;nan
43814;BME280;29669;55.706;37.656;2022-12-29T00:13:42;99723.16;;;0.94;nan
43814;BME280;29669;55.706;37.656;2022-12-29T00:16:29;99729.88;;;0.95;nan
43814;BME280;29669;55.706;37.656;2022-12-29T00:18:58;99730.00;;;0.81;nan
43814;BME280;29669;55.706;37.656;2022-12-29T00:24:16;99725.38;;;0.61;nan
43814;BME280;29669;55.706;37.656;2022-12-29T00:26:58;99739.00;;;0.61;nan
43814;BME280;29669;55.706;37.656;2022-12-29T00:29:55;99742.16;;;0.65;nan
43814;BME280;29669;55.706;37.656;2022-12-29T00:32:42;99748.69;;;0.69;nan
43814;BME280;29669;55.706;37.656;2022-12-29T00:35:29;99751.34;;;0.67;nan
43814;BME280;29669;55.706;37.656;2022-12-29T00:38:01;99748.38;;;0.61;nan
43814;BME280;29669;55.706;37.656;2022-12-29T00:40:49;99753.63;;;0.72;nan
43814;BME280;29669;55.706;37.656;2022-12-29T00:43:38;99755.66;;;0.67;nan
43814;BME280;29669;55.706;37.656;2022-12-29T00:46:28;99764.63;;;0.72;nan
43814;BME280;29669;55.706;37.656;2022-12-29T00:48:57;99769.63;;;0.74;nan
43814;BME280;29669;55.706;37.656;2022-12-29T00:51:44;99778.72;;;0.78;nan
43814;BME280;29669;55.706;37.656;2022-12-29T00:54:13;99779.84;;;0.74;nan
43814;BME280;29669;55.706;37.656;2022-12-29T00:56:42;99753.59;;;0.59;nan
43814;BME280;29669;55.706;37.656;2022-12-29T00:59:11;99761.97;;;0.61;nan
43814;BME280;29669;55.706;37.656;2022-12-29T01:01:39;99775.75;;;0.59;nan
43814;BME280;29669;55.706;37.656;2022-12-29T01:04:09;99749.91;;;0.51;nan
43814;BME280;29669;55.706;37.656;2022-12-29T01:06:39;99761.03;;;0.50;nan
43814;BME280;29669;55.706;37.656;2022-12-29T01:11:55;99761.25;;;0.47;nan
43814;BME280;29669;55.706;37.656;2022-12-29T01:14:23;99773.41;;;0.56;nan
43814;BME280;29669;55.706;37.656;2022-12-29T01:16:51;99765.03;;;0.54;nan
43814;BME280;29669;55.706;37.656;2022-12-29T01:19:20;99771.56;;;0.58;nan
43814;BME280;29669;55.706;37.656;2022-12-29T01:21:49;99770.34;;;0.63;nan
43814;BME280;29669;55.706;37.656;2022-12-29T01:24:19;99768.72;;;0.62;nan
43814;BME280;29669;55.706;37.656;2022-12-29T01:26:49;99788.13;;;0.65;nan
43814;BME280;29669;55.706;37.656;2022-12-29T01:29:17;99772.06;;;0.63;nan
43814;BME280;29669;55.706;37.656;2022-12-29T01:34:13;99788.84;;;0.67;nan
43814;BME280;29669;55.706;37.656;2022-12-29T01:36:41;99772.06;;;0.63;nan
43814;BME280;29669;55.706;37.656;2022-12-29T01:39:09;99772.41;;;0.58;nan
43814;BME280;29669;55.706;37.656;2022-12-29T01:41:36;99784.97;;;0.61;nan
43814;BME280;29669;55.706;37.656;2022-12-29T01:47:13;99777.69;;;0.55;nan
43814;BME280;29669;55.706;37.656;2022-12-29T01:49:41;99778.50;;;0.56;nan
43814;BME280;29669;55.706;37.656;2022-12-29T01:52:09;99777.47;;;0.46;nan
43814;BME280;29669;55.706;37.656;2022-12-29T01:54:41;99778.56;;;0.42;nan
43814;BME280;29669;55.706;37.656;2022-12-29T01:57:14;99771.13;;;0.39;nan
43814;BME280;29669;55.706;37.656;2022-12-29T01:59:51;99782.16;;;0.39;nan
43814;BME280;29669;55.706;37.656;2022-12-29T02:02:22;99775.22;;;0.41;nan
43814;BME280;29669;55.706;37.656;2022-12-29T02:04:52;99771.84;;;0.41;nan
43814;BME280;29669;55.706;37.656;2022-12-29T02:07:29;99784.63;;;0.53;nan
43814;BME280;29669;55.706;37.656;2022-12-29T02:09:57;99788.28;;;0.49;nan
43814;BME280;29669;55.706;37.656;2022-12-29T02:12:25;99783.88;;;0.39;nan
43814;BME280;29669;55.706;37.656;2022-12-29T02:14:58;99795.53;;;0.43;nan
43814;BME280;29669;55.706;37.656;2022-12-29T02:17:36;99792.59;;;0.49;nan
43814;BME280;29669;55.706;37.656;2022-12-29T02:20:27;99801.28;;;0.46;nan
43814;BME280;29669;55.706;37.656;2022-12-29T02:31:45;99808.19;;;0.32;nan
43814;BME280;29669;55.706;37.656;2022-12-29T02:34:30;99806.13;;;0.24;nan
43814;BME280;29669;55.706;37.656;2022-12-29T02:37:09;99796.66;;;0.12;nan
43814;BME280;29669;55.706;37.656;2022-12-29T02:45:30;99795.19;;;-0.05;nan
43814;BME280;29669;55.706;37.656;2022-12-29T02:50:38;99806.59;;;-0.10;nan
43814;BME280;29669;55.706;37.656;2022-12-29T02:53:15;99801.66;;;-0.13;nan
43814;BME280;29669;55.706;37.656;2022-12-29T02:56:05;99803.22;;;-0.11;nan
43814;BME280;29669;55.706;37.656;2022-12-29T02:58:33;99813.94;;;-0.06;nan
43814;BME280;29669;55.706;37.656;2022-12-29T03:12:12;99820.78;;;-0.06;nan
43814;BME280;29669;55.706;37.656;2022-12-29T03:14:59;99819.44;;;-0.12;nan
43814;BME280;29669;55.706;37.656;2022-12-29T03:18:24;99827.88;;;-0.11;nan
43814;BME280;29669;55.706;37.656;2022-12-29T03:20:55;99821.13;;;-0.25;nan
43814;BME280;29669;55.706;37.656;2022-12-29T03:23:27;99834.75;;;-0.26;nan
43814;BME280;29669;55.706;37.656;2022-12-29T03:25:59;99817.75;;;-0.39;nan
43814;BME280;29669;55.706;37.656;2022-12-29T03:28:36;99831.41;;;-0.40;nan
43814;BME280;29669;55.706;37.656;2022-12-29T03:31:06;99835.22;;;-0.47;nan
43814;BME280;29669;55.706;37.656;2022-12-29T03:33:39;99832.50;;;-0.44;nan
43814;BME280;29669;55.706;37.656;2022-12-29T03:36:16;99831.69;;;-0.45;nan
43814;BME280;29669;55.706;37.656;2022-12-29T03:38:50;99853.34;;;-0.38;nan
43814;BME280;29669;55.706;37.656;2022-12-29T03:41:24;99845.25;;;-0.44;nan
43814;BME280;29669;55.706;37.656;2022-12-29T03:43:53;99855.88;;;-0.38;nan
43814;BME280;29669;55.706;37.656;2022-12-29T03:46:22;99856.72;;;-0.37;nan
43814;BME280;29669;55.706;37.656;2022-12-29T03:48:50;99852.53;;;-0.38;nan
43814;BME280;29669;55.706;37.656;2022-12-29T03:51:18;99860.91;;;-0.36;nan
43814;BME280;29669;55.706;37.656;2022-12-29T03:53:46;99872.66;;;-0.34;nan
43814;BME280;29669;55.706;37.656;2022-12-29T03:56:14;99860.09;;;-0.37;nan
43814;BME280;29669;55.706;37.656;2022-12-29T03:58:42;99854.63;;;-0.45;nan
43814;BME280;29669;55.706;37.656;2022-12-29T04:01:19;99865.03;;;-0.48;nan
43814;BME280;29669;55.706;37.656;2022-12-29T04:03:47;99863.56;;;-0.52;nan
43814;BME280;29669;55.706;37.656;2022-12-29T04:06:15;99879.00;;;-0.55;nan
43814;BME280;29669;55.706;37.656;2022-12-29T04:09:04;99857.66;;;-0.66;nan
43814;BME280;29669;55.706;37.656;2022-12-29T04:16:33;99877.66;;;-0.74;nan
43814;BME280;29669;55.706;37.656;2022-12-29T04:19:07;99869.25;;;-0.90;nan
43814;BME280;29669;55.706;37.656;2022-12-29T04:21:36;99868.06;;;-0.99;nan
43814;BME280;29669;55.706;37.656;2022-12-29T04:24:05;99874.63;;;-0.95;nan
43814;BME280;29669;55.706;37.656;2022-12-29T04:26:41;99878.34;;;-0.86;nan
43814;BME280;29669;55.706;37.656;2022-12-29T04:32:34;99886.09;;;-0.88;nan
43814;BME280;29669;55.706;37.656;2022-12-29T04:35:02;99880.66;;;-0.82;nan
43814;BME280;29669;55.706;37.656;2022-12-29T04:37:31;99884.09;;;-0.83;nan
43814;BME280;29669;55.706;37.656;2022-12-29T04:44:54;99880.34;;;-0.91;nan
43814;BME280;29669;55.706;37.656;2022-12-29T04:47:43;99879.53;;;-0.92;nan
43814;BME280;29669;55.706;37.656;2022-12-29T04:50:43;99884.47;;;-0.89;nan
43814;BME280;29669;55.706;37.656;2022-12-29T04:53:18;99900.84;;;-0.79;nan
43814;BME280;29669;55.706;37.656;2022-12-29T04:55:51;99884.81;;;-0.81;nan
43814;BME280;29669;55.706;37.656;2022-12-29T04:58:20;99894.28;;;-0.83;nan
43814;BME280;29669;55.706;37.656;2022-12-29T05:00:51;99893.72;;;-0.88;nan
43814;BME280;29669;55.706;37.656;2022-12-29T05:03:22;99892.16;;;-0.90;nan
43814;BME280;29669;55.706;37.656;2022-12-29T05:05:55;99899.81;;;-0.90;nan
43814;BME280;29669;55.706;37.656;2022-12-29T05:10:57;99917.94;;;-0.81;nan
43814;BME280;29669;55.706;37.656;2022-12-29T05:13:26;99903.19;;;-0.90;nan
43814;BME280;29669;55.706;37.656;2022-12-29T05:15:54;99906.19;;;-0.98;nan
43814;BME280;29669;55.706;37.656;2022-12-29T05:18:23;99913.28;;;-1.03;nan
43814;BME280;29669;55.706;37.656;2022-12-29T05:20:52;99918.91;;;-0.98;nan
43814;BME280;29669;55.706;37.656;2022-12-29T05:23:22;99901.03;;;-1.12;nan
43814;BME280;29669;55.706;37.656;2022-12-29T05:25:56;99911.28;;;-0.98;nan
43814;BME280;29669;55.706;37.656;2022-12-29T05:28:32;99914.34;;;-1.07;nan
43814;BME280;29669;55.706;37.656;2022-12-29T05:33:48;99923.06;;;-1.11;nan
43814;BME280;29669;55.706;37.656;2022-12-29T05:36:16;99905.03;;;-1.22;nan
43814;BME280;29669;55.706;37.656;2022-12-29T05:38:48;99925.13;;;-1.17;nan
43814;BME280;29669;55.706;37.656;2022-12-29T05:41:18;99926.13;;;-1.20;nan
43814;BME280;29669;55.706;37.656;2022-12-29T05:43:46;99927.41;;;-1.13;nan
43814;BME280;29669;55.706;37.656;2022-12-29T05:46:27;99945.66;;;-1.05;nan
43814;BME280;29669;55.706;37.656;2022-12-29T05:49:06;99942.81;;;-1.00;nan
43814;BME280;29669;55.706;37.656;2022-12-29T05:55:12;99935.75;;;-0.95;nan
43814;BME280;29669;55.706;37.656;2022-12-29T05:57:42;99924.25;;;-1.02;nan
43814;BME280;29669;55.706;37.656;2022-12-29T06:02:45;99932.47;;;-0.97;nan
43814;BME280;29669;55.706;37.656;2022-12-29T06:05:15;99927.53;;;-1.00;nan
43814;BME280;29669;55.706;37.656;2022-12-29T06:07:44;99938.75;;;-1.03;nan
43814;BME280;29669;55.706;37.656;2022-12-29T06:10:15;99931.25;;;-1.06;nan
43814;BME280;29669;55.706;37.656;2022-12-29T06:12:55;99927.22;;;-1.10;nan
43814;BME280;29669;55.706;37.656;2022-12-29T06:15:24;99914.50;;;-1.10;nan
43814;BME280;29669;55.706;37.656;2022-12-29T06:17:56;99937.56;;;-0.97;nan
43814;BME280;29669;55.706;37.656;2022-12-29T06:20:25;99928.28;;;-0.98;nan
43814;BME280;29669;55.706;37.656;2022-12-29T06:22:52;99932.47;;;-0.97;nan
43814;BME280;29669;55.706;37.656;2022-12-29T06:25:22;99942.97;;;-0.87;nan
43814;BME280;29669;55.706;37.656;2022-12-29T06:30:24;99939.50;;;-0.86;nan
43814;BME280;29669;55.706;37.656;2022-12-29T06:35:23;99943.97;;;-0.90;nan
43814;BME280;29669;55.706;37.656;2022-12-29T06:37:52;99956.59;;;-0.88;nan
43814;BME280;29669;55.706;37.656;2022-12-29T06:40:20;99953.81;;;-0.84;nan
43814;BME280;29669;55.706;37.656;2022-12-29T06:43:17;99929.50;;;-0.89;nan
43814;BME280;29669;55.706;37.656;2022-12-29T06:45:59;99941.72;;;-0.80;nan
43814;BME280;29669;55.706;37.656;2022-12-29T06:50:55;99952.44;;;-0.75;nan
43814;BME280;29669;55.706;37.656;2022-12-29T06:53:24;99945.53;;;-0.73;nan
43814;BME280;29669;55.706;37.656;2022-12-29T06:58:27;99946.75;;;-0.65;nan
43814;BME280;29669;55.706;37.656;2022-12-29T07:01:03;99943.84;;;-0.59;nan
43814;BME280;29669;55.706;37.656;2022-12-29T07:03:32;99949.50;;;-0.54;nan
43814;BME280;29669;55.706;37.656;2022-12-29T07:06:01;99930.38;;;-0.61;nan
43814;BME280;29669;55.706;37.656;2022-12-29T07:08:29;99937.66;;;-0.55;nan
43814;BME280;29669;55.706;37.656;2022-12-29T07:15:53;99944.41;;;-0.40;nan
43814;BME280;29669;55.706;37.656;2022-12-29T07:20:49;99948.44;;;-0.22;nan
43814;BME280;29669;55.706;37.656;2022-12-29T07:23:17;99940.06;;;-0.24;nan
43814;BME280;29669;55.706;37.656;2022-12-29T07:25:46;99948.19;;;-0.17;nan
43814;BME280;29669;55.706;37.656;2022-12-29T07:28:14;99936.22;;;-0.17;nan
43814;BME280;29669;55.706;37.656;2022-12-29T07:35:39;99954.88;;;0.26;nan
43814;BME280;29669;55.706;37.656;2022-12-29T07:38:07;99959.78;;;0.29;nan
43814;BME280;29669;55.706;37.656;2022-12-29T07:43:04;99964.00;;;0.30;nan
43814;BME280;29669;55.706;37.656;2022-12-29T07:45:40;99963.69;;;0.35;nan
43814;BME280;29669;55.706;37.656;2022-12-29T07:48:08;99956.25;;;0.32;nan
43814;BME280;29669;55.706;37.656;2022-12-29T07:55:34;99971.09;;;0.39;nan
43814;BME280;29669;55.706;37.656;2022-12-29T07:58:03;99975.91;;;0.44;nan
43814;BME280;29669;55.706;37.656;2022-12-29T08:00:32;99963.34;;;0.41;nan
43814;BME280;29669;55.706;37.656;2022-12-29T08:03:01;99968.69;;;0.50;nan
43814;BME280;29669;55.706;37.656;2022-12-29T08:05:31;99979.25;;;0.58;nan
43814;BME280;29669;55.706;37.656;2022-12-29T08:08:01;99974.78;;;0.62;nan
43814;BME280;29669;55.706;37.656;2022-12-29T08:10:30;99960.34;;;0.61;nan
43814;BME280;29669;55.706;37.656;2022-12-29T08:12:58;99972.09;;;0.77;nan
43814;BME280;29669;55.706;37.656;2022-12-29T08:18:03;99983.34;;;0.61;nan
43814;BME280;29669;55.706;37.656;2022-12-29T08:20:31;99960.31;;;0.48;nan
43814;BME280;29669;55.706;37.656;2022-12-29T08:23:00;99988.69;;;0.70;nan
43814;BME280;29669;55.706;37.656;2022-12-29T08:25:28;99985.50;;;0.81;nan
43814;BME280;29669;55.706;37.656;2022-12-29T08:27:58;99980.06;;;0.85;nan
43814;BME280;29669;55.706;37.656;2022-12-29T08:30:27;99969.44;;;0.79;nan
43814;BME280;29669;55.706;37.656;2022-12-29T08:32:55;99975.06;;;0.84;nan
43814;BME280;29669;55.706;37.656;2022-12-29T08:37:52;99978.06;;;0.90;nan
43814;BME280;29669;55.706;37.656;2022-12-29T08:40:22;99989.63;;;0.96;nan
43814;BME280;29669;55.706;37.656;2022-12-29T08:42:50;99991.59;;;1.05;nan
43814;BME280;29669;55.706;37.656;2022-12-29T08:45:20;99992.66;;;1.15;nan
43814;BME280;29669;55.706;37.656;2022-12-29T08:47:48;99979.38;;;1.23;nan
43814;BME280;29669;55.706;37.656;2022-12-29T08:50:17;99973.25;;;1.25;nan
43814;BME280;29669;55.706;37.656;2022-12-29T08:52:46;99989.25;;;1.41;nan
43814;BME280;29669;55.706;37.656;2022-12-29T08:55:16;99977.06;;;1.45;nan
43814;BME280;29669;55.706;37.656;2022-12-29T08:57:44;99970.00;;;1.48;nan
43814;BME280;29669;55.706;37.656;2022-12-29T09:00:19;99970.22;;;1.70;nan
43814;BME280;29669;55.706;37.656;2022-12-29T09:02:48;99965.44;;;1.66;nan
43814;BME280;29669;55.706;37.656;2022-12-29T09:05:16;99994.59;;;1.88;nan
43814;BME280;29669;55.706;37.656;2022-12-29T09:07:44;99975.53;;;1.80;nan
43814;BME280;29669;55.706;37.656;2022-12-29T09:10:12;99975.25;;;1.72;nan
43814;BME280;29669;55.706;37.656;2022-12-29T09:12:51;99979.88;;;1.79;nan
43814;BME280;29669;55.706;37.656;2022-12-29T09:15:19;99996.22;;;1.77;nan
43814;BME280;29669;55.706;37.656;2022-12-29T09:20:16;99983.16;;;1.81;nan
43814;BME280;29669;55.706;37.656;2022-12-29T09:22:47;99981.91;;;1.87;nan
43814;BME280;29669;55.706;37.656;2022-12-29T09:25:16;99982.72;;;1.87;nan
43814;BME280;29669;55.706;37.656;2022-12-29T09:27:45;99973.31;;;1.75;nan
43814;BME280;29669;55.706;37.656;2022-12-29T09:30:15;99984.97;;;1.79;nan
43814;BME280;29669;55.706;37.656;2022-12-29T09:32:43;99968.19;;;1.75;nan
43814;BME280;29669;55.706;37.656;2022-12-29T09:35:14;99980.06;;;1.76;nan
43814;BME280;29669;55.706;37.656;2022-12-29T09:37:43;99969.63;;;1.79;nan
43814;BME280;29669;55.706;37.656;2022-12-29T09:40:31;99974.94;;;2.02;nan
43814;BME280;29669;55.706;37.656;2022-12-29T09:45:58;99967.50;;;2.35;nan
43814;BME280;29669;55.706;37.656;2022-12-29T09:48:34;99979.31;;;2.25;nan
43814;BME280;29669;55.706;37.656;2022-12-29T09:51:11;99979.19;;;2.26;nan
43814;BME280;29669;55.706;37.656;2022-12-29T09:53:43;99989.84;;;2.33;nan
43814;BME280;29669;55.706;37.656;2022-12-29T09:59:20;99976.75;;;2.25;nan
43814;BME280;29669;55.706;37.656;2022-12-29T10:04:28;99984.44;;;2.25;nan
43814;BME280;29669;55.706;37.656;2022-12-29T10:23:40;99995.22;;;1.79;nan
43814;BME280;29669;55.706;37.656;2022-12-29T10:26:15;99987.22;;;1.71;nan
43814;BME280;29669;55.706;37.656;2022-12-29T10:28:49;99983.94;;;1.69;nan
43814;BME280;29669;55.706;37.656;2022-12-29T10:31:25;99992.84;;;1.76;nan
43814;BME280;29669;55.706;37.656;2022-12-29T10:34:00;99984.16;;;1.66;nan
43814;BME280;29669;55.706;37.656;2022-12-29T10:36:39;99975.16;;;1.61;nan
43814;BME280;29669;55.706;37.656;2022-12-29T10:39:30;99990.28;;;1.76;nan
43814;BME280;29669;55.706;37.656;2022-12-29T10:44:41;100001.13;;;1.80;nan
43814;BME280;29669;55.706;37.656;2022-12-29T10:47:15;99977.09;;;1.70;nan
43814;BME280;29669;55.706;37.656;2022-12-29T10:49:45;99988.56;;;1.64;nan
43814;BME280;29669;55.706;37.656;2022-12-29T10:52:17;99977.69;;;1.48;nan
43814;BME280;29669;55.706;37.656;2022-12-29T10:54:57;99998.06;;;1.62;nan
43814;BME280;29669;55.706;37.656;2022-12-29T10:57:31;99978.72;;;1.58;nan
43814;BME280;29669;55.706;37.656;2022-12-29T11:00:00;99987.63;;;1.65;nan
43814;BME280;29669;55.706;37.656;2022-12-29T11:02:55;99983.13;;;1.69;nan
43814;BME280;29669;55.706;37.656;2022-12-29T11:05:36;99972.38;;;1.64;nan
43814;BME280;29669;55.706;37.656;2022-12-29T11:08:26;99984.34;;;1.63;nan
43814;BME280;29669;55.706;37.656;2022-12-29T11:11:08;99961.66;;;1.59;nan
43814;BME280;29669;55.706;37.656;2022-12-29T11:13:51;99973.00;;;1.67;nan
43814;BME280;29669;55.706;37.656;2022-12-29T11:18:58;99970.66;;;1.64;nan
43814;BME280;29669;55.706;37.656;2022-12-29T11:21:32;99960.41;;;1.64;nan
43814;BME280;29669;55.706;37.656;2022-12-29T11:24:05;99972.78;;;1.70;nan
43814;BME280;29669;55.706;37.656;2022-12-29T11:27:25;99965.09;;;1.70;nan
43814;BME280;29669;55.706;37.656;2022-12-29T11:29:54;99977.22;;;1.68;nan
43814;BME280;29669;55.706;37.656;2022-12-29T11:32:24;99951.81;;;1.65;nan
43814;BME280;29669;55.706;37.656;2022-12-29T11:34:56;99948.13;;;1.69;nan
43814;BME280;29669;55.706;37.656;2022-12-29T11:37:32;99967.25;;;1.76;nan
43814;BME280;29669;55.706;37.656;2022-12-29T11:42:49;99956.91;;;1.78;nan
43814;BME280;29669;55.706;37.656;2022-12-29T11:45:35;99964.28;;;1.82;nan
43814;BME280;29669;55.706;37.656;2022-12-29T11:48:14;99971.56;;;1.88;nan
43814;BME280;29669;55.706;37.656;2022-12-29T11:53:27;99968.50;;;1.83;nan
43814;BME280;29669;55.706;37.656;2022-12-29T11:56:03;99980.88;;;1.77;nan
43814;BME280;29669;55.706;37.656;2022-12-29T11:58:37;99970.03;;;1.61;nan
43814;BME280;29669;55.706;37.656;2022-12-29T12:03:42;99973.22;;;1.64;nan
43814;BME280;29669;55.706;37.656;2022-12-29T12:09:05;99995.19;;;1.67;nan
43814;BME280;29669;55.706;37.656;2022-12-29T12:11:37;99990.78;;;1.56;nan
43814;BME280;29669;55.706;37.656;2022-12-29T12:17:30;100011.31;;;1.42;nan
43814;BME280;29669;55.706;37.656;2022-12-29T12:28:44;99998.03;;;1.37;nan
43814;BME280;29669;55.706;37.656;2022-12-29T12:31:39;99989.84;;;1.32;nan
43814;BME280;29669;55.706;37.656;2022-12-29T12:34:20;99982.47;;;1.28;nan
43814;BME280;29669;55.706;37.656;2022-12-29T12:39:31;99998.75;;;1.39;nan
43814;BME280;29669;55.706;37.656;2022-12-29T12:51:34;99977.69;;;1.48;nan
43814;BME280;29669;55.706;37.656;2022-12-29T12:54:31;99987.72;;;1.51;nan
43814;BME280;29669;55.706;37.656;2022-12-29T12:57:23;99990.28;;;1.51;nan
43814;BME280;29669;55.706;37.656;2022-12-29T13:00:01;99975.72;;;1.39;nan
43814;BME280;29669;55.706;37.656;2022-12-29T13:03:05;99987.91;;;1.48;nan
43814;BME280;29669;55.706;37.656;2022-12-29T13:08:23;99996.41;;;1.36;nan
43814;BME280;29669;55.706;37.656;2022-12-29T13:11:18;99994.13;;;1.32;nan
43814;BME280;29669;55.706;37.656;2022-12-29T13:19:38;99997.81;;;1.40;nan
43814;BME280;29669;55.706;37.656;2022-12-29T13:25:21;100000.31;;;1.54;nan
43814;BME280;29669;55.706;37.656;2022-12-29T13:31:00;99990.06;;;1.54;nan
43814;BME280;29669;55.706;37.656;2022-12-29T13:33:45;99993.97;;;1.60;nan
43814;BME280;29669;55.706;37.656;2022-12-29T13:36:27;99986.50;;;1.57;nan
43814;BME280;29669;55.706;37.656;2022-12-29T13:39:19;99981.38;;;1.57;nan
43814;BME280;29669;55.706;37.656;2022-12-29T13:41:51;99979.75;;;1.56;nan
43814;BME280;29669;55.706;37.656;2022-12-29T13:44:26;99990.06;;;1.67;nan
43814;BME280;29669;55.706;37.656;2022-12-29T13:47:04;99982.31;;;1.68;nan
43814;BME280;29669;55.706;37.656;2022-12-29T13:49:34;99979.22;;;1.63;nan
43814;BME280;29669;55.706;37.656;2022-12-29T13:54:55;99984.16;;;1.66;nan
43814;BME280;29669;55.706;37.656;2022-12-29T14:00:16;99985.38;;;1.73;nan
43814;BME280;29669;55.706;37.656;2022-12-29T14:07:49;99980.66;;;1.67;nan
43814;BME280;29669;55.706;37.656;2022-12-29T14:10:44;99980.66;;;1.67;nan
43814;BME280;29669;55.706;37.656;2022-12-29T14:15:51;99984.16;;;1.66;nan
43814;BME280;29669;55.706;37.656;2022-12-29T14:18:25;99975.66;;;1.66;nan
43814;BME280;29669;55.706;37.656;2022-12-29T14:21:07;99991.22;;;1.75;nan
43814;BME280;29669;55.706;37.656;2022-12-29T14:26:17;99968.59;;;1.69;nan
43814;BME280;29669;55.706;37.656;2022-12-29T14:28:48;99981.00;;;1.75;nan
43814;BME280;29669;55.706;37.656;2022-12-29T14:36:54;99982.22;;;1.82;nan
43814;BME280;29669;55.706;37.656;2022-12-29T14:39:34;99995.00;;;1.82;nan
43814;BME280;29669;55.706;37.656;2022-12-29T14:44:53;99989.59;;;1.87;nan
43814;BME280;29669;55.706;37.656;2022-12-29T14:47:36;99992.22;;;1.85;nan
43814;BME280;29669;55.706;37.656;2022-12-29T14:58:22;99986.72;;;1.79;nan
43814;BME280;29669;55.706;37.656;2022-12-29T15:03:48;99978.63;;;1.72;nan
43814;BME280;29669;55.706;37.656;2022-12-29T15:06:18;99993.56;;;1.78;nan
43814;BME280;29669;55.706;37.656;2022-12-29T15:08:54;99980.44;;;1.70;nan
43814;BME280;29669;55.706;37.656;2022-12-29T15:18:58;99997.78;;;1.79;nan
43814;BME280;29669;55.706;37.656;2022-12-29T15:21:34;100002.97;;;1.78;nan
43814;BME280;29669;55.706;37.656;2022-12-29T15:24:04;100000.53;;;1.76;nan
43814;BME280;29669;55.706;37.656;2022-12-29T15:26:37;99981.50;;;1.68;nan
43814;BME280;29669;55.706;37.656;2022-12-29T15:29:33;99993.88;;;1.74;nan
43814;BME280;29669;55.706;37.656;2022-12-29T15:32:17;99992.56;;;1.68;nan
43814;BME280;29669;55.706;37.656;2022-12-29T15:34:53;99979.44;;;1.60;nan
43814;BME280;29669;55.706;37.656;2022-12-29T15:37:35;99977.00;;;1.59;nan
43814;BME280;29669;55.706;37.656;2022-12-29T15:40:03;99985.06;;;1.65;nan
43814;BME280;29669;55.706;37.656;2022-12-29T15:42:56;99977.50;;;1.64;nan
43814;BME280;29669;55.706;37.656;2022-12-29T15:45:33;99969.59;;;1.54;nan
43814;BME280;29669;55.706;37.656;2022-12-29T15:48:04;99972.78;;;1.45;nan
43814;BME280;29669;55.706;37.656;2022-12-29T15:50:36;99983.31;;;1.53;nan
43814;BME280;29669;55.706;37.656;2022-12-29T15:53:10;99978.69;;;1.46;nan
43814;BME280;29669;55.706;37.656;2022-12-29T15:55:41;99990.47;;;1.48;nan
43814;BME280;29669;55.706;37.656;2022-12-29T15:58:24;99988.53;;;1.52;nan
43814;BME280;29669;55.706;37.656;2022-12-29T16:00:54;99967.22;;;1.39;nan
43814;BME280;29669;55.706;37.656;2022-12-29T16:03:31;99974.72;;;1.42;nan
43814;BME280;29669;55.706;37.656;2022-12-29T16:06:09;99965.50;;;1.39;nan
43814;BME280;29669;55.706;37.656;2022-12-29T16:08:39;99954.84;;;1.33;nan
43814;BME280;29669;55.706;37.656;2022-12-29T16:11:56;99974.00;;;1.40;nan
43814;BME280;29669;55.706;37.656;2022-12-29T16:14:37;99959.88;;;1.34;nan
43814;BME280;29669;55.706;37.656;2022-12-29T16:17:21;99960.19;;;1.42;nan
43814;BME280;29669;55.706;37.656;2022-12-29T16:19:57;99962.56;;;1.45;nan
43814;BME280;29669;55.706;37.656;2022-12-29T16:22:46;99952.81;;;1.38;nan
43814;BME280;29669;55.706;37.656;2022-12-29T16:25:33;99956.09;;;1.40;nan
43814;BME280;29669;55.706;37.656;2022-12-29T16:28:17;99940.84;;;1.38;nan
43814;BME280;29669;55.706;37.656;2022-12-29T16:30:46;99948.09;;;1.44;nan
43814;BME280;29669;55.706;37.656;2022-12-29T16:33:37;99945.25;;;1.49;nan
43814;BME280;29669;55.706;37.656;2022-12-29T16:36:29;99949.75;;;1.45;nan
43814;BME280;29669;55.706;37.656;2022-12-29T16:41:39;99940.31;;;1.33;nan
43814;BME280;29669;55.706;37.656;2022-12-29T16:44:19;99947.72;;;1.38;nan
43814;BME280;29669;55.706;37.656;2022-12-29T16:49:40;99934.38;;;1.33;nan
43814;BME280;29669;55.706;37.656;2022-12-29T16:52:20;99937.78;;;1.33;nan
43814;BME280;29669;55.706;37.656;2022-12-29T16:54:56;99936.22;;;1.31;nan
43814;BME280;29669;55.706;37.656;2022-12-29T16:57:34;99935.44;;;1.30;nan
43814;BME280;29669;55.706;37.656;2022-12-29T17:00:08;99937.78;;;1.33;nan
43814;BME280;29669;55.706;37.656;2022-12-29T17:02:51;99930.50;;;1.27;nan
43814;BME280;29669;55.706;37.656;2022-12-29T17:05:22;99936.44;;;1.28;nan
43814;BME280;29669;55.706;37.656;2022-12-29T17:07:51;99936.72;;;1.23;nan
43814;BME280;29669;55.706;37.656;2022-12-29T17:10:21;99939.94;;;1.27;nan
43814;BME280;29669;55.706;37.656;2022-12-29T17:13:09;99942.97;;;1.19;nan
43814;BME280;29669;55.706;37.656;2022-12-29T17:15:38;99940.94;;;1.24;nan
43814;BME280;29669;55.706;37.656;2022-12-29T17:18:07;99940.44;;;1.19;nan
43814;BME280;29669;55.706;37.656;2022-12-29T17:20:40;99941.75;;;1.25;nan
43814;BME280;29669;55.706;37.656;2022-12-29T17:23:14;99935.59;;;1.27;nan
43814;BME280;29669;55.706;37.656;2022-12-29T17:25:53;99950.75;;;1.30;nan
43814;BME280;29669;55.706;37.656;2022-12-29T17:28:25;99943.50;;;1.37;nan
43814;BME280;29669;55.706;37.656;2022-12-29T17:30:58;99946.06;;;1.37;nan
43814;BME280;29669;55.706;37.656;2022-12-29T17:33:34;99937.88;;;1.32;nan
43814;BME280;29669;55.706;37.656;2022-12-29T17:36:06;99934.09;;;1.25;nan
43814;BME280;29669;55.706;37.656;2022-12-29T17:38:40;99931.44;;;1.26;nan
43814;BME280;29669;55.706;37.656;2022-12-29T17:41:13;99932.31;;;1.25;nan
43814;BME280;29669;55.706;37.656;2022-12-29T17:43:45;99925.19;;;1.30;nan
43814;BME280;29669;55.706;37.656;2022-12-29T17:46:16;99924.09;;;1.34;nan
43814;BME280;29669;55.706;37.656;2022-12-29T17:48:45;99919.88;;;1.33;nan
43814;BME280;29669;55.706;37.656;2022-12-29T17:51:21;99921.09;;;1.28;nan
43814;BME280;29669;55.706;37.656;2022-12-29T17:53:52;99921.81;;;1.30;nan